Akrotiri, Cyprus
Current Conditions -  °F | °C
As of 9:50 AM on Sunday 23 Nov 2014 (Local Time) from LCRA Reporting Station
Scattered Clouds Scattered Clouds  
Wind Chill: 59°   Ceiling: Unl
Heat Index: 59°   Visibility: 6mi
Dew Point: 43°   Wind: 2mph
Humidity: 55%   Direction: 330°NNW
Pressure: 30"   Gusts: NA
Location:  34.6°N, 32.96°E
Report Text: LCRA 230650Z 33002KT 9999 FEW040 SCT060 15/06 Q1016 NOSIG
Loading
Personal Weather Stations






























Interactive Weather Map New forecast layout! Learn more

10-Day Weather Forecast

Advertisements
Track Severe Weather on mobile